Time;durP1;ratioP1;P1;durP2;ratioP2;P2;SDS_P1;SDS_P2;PMS_P1;PMS_P2;Temp;Humidity;BMP_temperature;BMP_pressure;BME280_temperature;BME280_humidity;BME280_pressure;Samples;Min_cycle;Max_cycle;Signal;HPM_P1;HPM_P2
2023/05/20 00:01:52;;;;;;;2.45;2.25;;;;;;;;;;5019387;28;20125;-74
2023/05/20 00:04:19;;;;;;;2.13;2.03;;;;;;;;;;5013283;28;20049;-74
2023/05/20 00:06:47;;;;;;;2.30;2.10;;;;;;;;;;5018051;28;20114;-75
2023/05/20 00:09:16;;;;;;;2.20;2.10;;;;;;;;;;5020956;28;20041;-75
2023/05/20 00:11:46;;;;;;;1.98;1.88;;;;;;;;;;5000987;28;20043;-74
2023/05/20 00:14:13;;;;;;;2.03;1.92;;;;;;;;;;5016553;28;20280;-74
2023/05/20 00:16:42;;;;;;;2.20;2.10;;;;;;;;;;5014959;28;20049;-74
2023/05/20 00:19:09;;;;;;;2.10;2.00;;;;;;;;;;5018562;28;20084;-74
2023/05/20 00:21:37;;;;;;;2.17;2.08;;;;;;;;;;5019921;28;20052;-74
2023/05/20 00:24:04;;;;;;;2.10;2.00;;;;;;;;;;5016547;28;20125;-74
2023/05/20 00:26:32;;;;;;;2.10;2.00;;;;;;;;;;5018733;28;20041;-74
2023/05/20 00:29:00;;;;;;;3.53;2.22;;;;;;;;;;5020997;28;20049;-74
2023/05/20 00:31:27;;;;;;;2.17;2.08;;;;;;;;;;5014917;28;20046;-73
2023/05/20 00:33:54;;;;;;;2.10;2.00;;;;;;;;;;5002371;28;20148;-73
2023/05/20 00:36:22;;;;;;;2.10;2.00;;;;;;;;;;5016855;28;20111;-73
2023/05/20 00:38:50;;;;;;;3.40;2.13;;;;;;;;;;5000545;28;20797;-74
2023/05/20 00:41:17;;;;;;;2.47;2.13;;;;;;;;;;4997426;28;20072;-73
2023/05/20 00:43:44;;;;;;;2.20;2.10;;;;;;;;;;5020822;28;20053;-73
2023/05/20 00:46:12;;;;;;;2.70;2.60;;;;;;;;;;5024098;28;20048;-73
2023/05/20 00:48:40;;;;;;;2.50;2.33;;;;;;;;;;5021281;28;20091;-74
2023/05/20 00:51:08;;;;;;;2.60;2.50;;;;;;;;;;5006946;28;20034;-73
2023/05/20 00:53:36;;;;;;;2.55;2.35;;;;;;;;;;5011804;28;20474;-73
2023/05/20 00:56:04;;;;;;;2.40;2.30;;;;;;;;;;5028098;28;20045;-73
2023/05/20 00:58:31;;;;;;;2.75;2.55;;;;;;;;;;5018936;28;20088;-73
2023/05/20 01:00:59;;;;;;;2.50;2.40;;;;;;;;;;5008264;28;20091;-73
2023/05/20 01:03:26;;;;;;;2.78;2.67;;;;;;;;;;5016387;28;20065;-74
2023/05/20 01:05:54;;;;;;;2.47;2.35;;;;;;;;;;4996178;28;20068;-73
2023/05/20 01:08:22;;;;;;;2.75;2.53;;;;;;;;;;5016426;28;20511;-74
2023/05/20 01:10:54;;;;;;;2.35;2.25;;;;;;;;;;5018000;28;20427;-73
2023/05/20 01:13:23;;;;;;;2.92;2.75;;;;;;;;;;5003785;28;20523;-73
2023/05/20 01:15:52;;;;;;;2.60;2.40;;;;;;;;;;4998807;28;20049;-73
2023/05/20 01:18:20;;;;;;;3.10;2.90;;;;;;;;;;4997045;28;20144;-74
2023/05/20 01:20:49;;;;;;;2.72;2.53;;;;;;;;;;5019716;28;20149;-73
2023/05/20 01:23:17;;;;;;;2.83;2.63;;;;;;;;;;5012989;28;20041;-74
2023/05/20 01:25:44;;;;;;;2.75;2.55;;;;;;;;;;5016141;28;20580;-73
2023/05/20 01:28:16;;;;;;;2.80;2.63;;;;;;;;;;5015111;28;20046;-73
2023/05/20 01:30:47;;;;;;;2.72;2.50;;;;;;;;;;5019772;28;20049;-73
2023/05/20 01:33:17;;;;;;;2.78;2.58;;;;;;;;;;5010760;28;20045;-74
2023/05/20 01:35:44;;;;;;;2.53;2.42;;;;;;;;;;4997363;28;20099;-73
2023/05/20 01:38:12;;;;;;;2.42;2.30;;;;;;;;;;5009577;28;20077;-74
2023/05/20 01:40:41;;;;;;;2.53;2.40;;;;;;;;;;5014059;28;20422;-73
2023/05/20 01:43:09;;;;;;;2.60;2.40;;;;;;;;;;5014444;28;20084;-74
2023/05/20 01:45:38;;;;;;;2.63;2.42;;;;;;;;;;5015735;28;20488;-73
2023/05/20 01:48:06;;;;;;;2.13;2.03;;;;;;;;;;5001838;28;20064;-73
2023/05/20 01:50:34;;;;;;;2.55;2.35;;;;;;;;;;4999033;28;20052;-73
2023/05/20 01:53:01;;;;;;;2.15;2.05;;;;;;;;;;5005352;28;20049;-74
2023/05/20 01:55:30;;;;;;;2.40;2.30;;;;;;;;;;5006933;28;20049;-72
2023/05/20 01:57:59;;;;;;;3.00;2.70;;;;;;;;;;5004914;28;20045;-73
2023/05/20 02:00:27;;;;;;;2.78;2.58;;;;;;;;;;5003000;28;20119;-73
2023/05/20 02:02:55;;;;;;;2.67;2.47;;;;;;;;;;5019162;28;20096;-73
2023/05/20 02:05:22;;;;;;;3.00;2.80;;;;;;;;;;5022716;28;20052;-74
2023/05/20 02:07:50;;;;;;;3.03;2.83;;;;;;;;;;5024383;28;20045;-73
2023/05/20 02:10:20;;;;;;;2.78;2.58;;;;;;;;;;5000818;28;20499;-73
2023/05/20 02:12:48;;;;;;;3.20;2.90;;;;;;;;;;5002871;28;20104;-74
2023/05/20 02:15:15;;;;;;;2.65;2.45;;;;;;;;;;5020089;28;20057;-74
2023/05/20 02:17:43;;;;;;;3.10;2.90;;;;;;;;;;5019443;28;20083;-73
2023/05/20 02:20:11;;;;;;;3.03;2.90;;;;;;;;;;5020772;28;20046;-73
2023/05/20 02:22:38;;;;;;;2.67;2.58;;;;;;;;;;4999510;28;20100;-73
2023/05/20 02:25:06;;;;;;;2.75;2.55;;;;;;;;;;5020206;28;20061;-73
2023/05/20 02:27:33;;;;;;;3.70;3.10;;;;;;;;;;5000579;28;20040;-73
2023/05/20 02:30:01;;;;;;;2.95;2.75;;;;;;;;;;5017341;28;20370;-73
2023/05/20 02:32:28;;;;;;;3.03;2.80;;;;;;;;;;4996855;28;20519;-74
2023/05/20 02:34:56;;;;;;;2.60;2.50;;;;;;;;;;5019250;28;20053;-74
2023/05/20 02:37:23;;;;;;;2.45;2.35;;;;;;;;;;5005063;28;20107;-74
2023/05/20 02:39:51;;;;;;;3.17;2.97;;;;;;;;;;5003484;28;20042;-75
2023/05/20 02:42:18;;;;;;;2.83;2.63;;;;;;;;;;5006678;28;20056;-74
2023/05/20 02:44:46;;;;;;;2.72;2.53;;;;;;;;;;5003748;28;20041;-73
2023/05/20 02:47:13;;;;;;;3.05;2.75;;;;;;;;;;4999729;28;20049;-73
2023/05/20 02:49:41;;;;;;;2.67;2.58;;;;;;;;;;4989331;28;20488;-73
2023/05/20 02:52:09;;;;;;;2.50;2.40;;;;;;;;;;4996196;28;20547;-73
2023/05/20 02:54:36;;;;;;;2.50;2.30;;;;;;;;;;5010917;28;20049;-73
2023/05/20 02:57:04;;;;;;;3.70;2.75;;;;;;;;;;4998557;28;20061;-74
2023/05/20 02:59:31;;;;;;;2.78;2.58;;;;;;;;;;4998116;28;20049;-74
2023/05/20 03:01:59;;;;;;;2.70;2.60;;;;;;;;;;5001874;28;20463;-74
2023/05/20 03:04:27;;;;;;;5.43;2.92;;;;;;;;;;5005364;28;20049;-73
2023/05/20 03:06:56;;;;;;;2.85;2.65;;;;;;;;;;5021738;28;20424;-73
2023/05/20 03:09:24;;;;;;;3.03;2.83;;;;;;;;;;5021962;28;20049;-73
2023/05/20 03:11:52;;;;;;;3.10;2.80;;;;;;;;;;4985894;28;20318;-73
2023/05/20 03:14:19;;;;;;;2.67;2.50;;;;;;;;;;5011504;28;20515;-73
2023/05/20 03:16:47;;;;;;;2.55;2.45;;;;;;;;;;5000466;28;20553;-73
2023/05/20 03:19:15;;;;;;;3.03;2.83;;;;;;;;;;4995123;28;20042;-73
2023/05/20 03:21:42;;;;;;;3.50;3.30;;;;;;;;;;5009260;28;20053;-73
2023/05/20 03:24:10;;;;;;;3.33;3.10;;;;;;;;;;5006255;28;20514;-74
2023/05/20 03:26:41;;;;;;;3.20;3.00;;;;;;;;;;5019631;28;20054;-74
2023/05/20 03:29:11;;;;;;;7.25;3.33;;;;;;;;;;5020294;28;20050;-75
2023/05/20 03:31:39;;;;;;;3.17;2.97;;;;;;;;;;5005782;28;21507;-75
2023/05/20 03:34:07;;;;;;;3.42;3.22;;;;;;;;;;5004566;28;20061;-75
2023/05/20 03:36:35;;;;;;;3.08;2.88;;;;;;;;;;5004945;28;20077;-75
2023/05/20 03:39:03;;;;;;;3.38;3.08;;;;;;;;;;5000809;28;20128;-74
2023/05/20 03:41:32;;;;;;;3.15;2.95;;;;;;;;;;5000103;28;20053;-75
2023/05/20 03:43:59;;;;;;;3.30;3.10;;;;;;;;;;5005110;28;20094;-75
2023/05/20 03:46:27;;;;;;;3.25;3.05;;;;;;;;;;5023811;28;20045;-75
2023/05/20 03:48:56;;;;;;;3.08;2.88;;;;;;;;;;4998511;28;20144;-74
2023/05/20 03:51:23;;;;;;;2.90;2.70;;;;;;;;;;5001075;28;20487;-74
2023/05/20 03:53:51;;;;;;;3.20;3.00;;;;;;;;;;4995780;28;20042;-75
2023/05/20 03:56:18;;;;;;;3.03;2.83;;;;;;;;;;5019482;28;20048;-74
2023/05/20 03:58:46;;;;;;;2.90;2.70;;;;;;;;;;5001230;28;20050;-74
2023/05/20 04:01:14;;;;;;;3.50;3.20;;;;;;;;;;5001723;28;20054;-74
2023/05/20 04:03:41;;;;;;;3.22;3.03;;;;;;;;;;5000085;28;20054;-74
2023/05/20 04:06:09;;;;;;;2.80;2.65;;;;;;;;;;5022081;28;20045;-74
2023/05/20 04:08:36;;;;;;;3.63;3.35;;;;;;;;;;5016789;28;20061;-74
2023/05/20 04:11:04;;;;;;;3.33;3.03;;;;;;;;;;5005400;28;20472;-74
2023/05/20 04:13:31;;;;;;;3.58;3.22;;;;;;;;;;5022931;28;20049;-75
2023/05/20 04:16:00;;;;;;;3.67;3.40;;;;;;;;;;5021877;28;20060;-74
2023/05/20 04:18:30;;;;;;;3.58;3.35;;;;;;;;;;5005519;28;20076;-75
2023/05/20 04:21:00;;;;;;;3.63;3.33;;;;;;;;;;5019053;28;20073;-74
2023/05/20 04:23:27;;;;;;;3.60;3.30;;;;;;;;;;4990840;28;20052;-74
2023/05/20 04:26:01;;;;;;;3.47;3.20;;;;;;;;;;5010281;28;20051;-74
2023/05/20 04:28:30;;;;;;;3.55;3.25;;;;;;;;;;5018416;28;20407;-74
2023/05/20 04:31:01;;;;;;;3.20;3.00;;;;;;;;;;5000056;28;20055;-74
2023/05/20 04:33:37;;;;;;;3.60;3.30;;;;;;;;;;4998671;28;20046;-74
2023/05/20 04:36:16;;;;;;;3.47;3.28;;;;;;;;;;4999832;28;20091;-74
2023/05/20 04:38:48;;;;;;;3.60;3.35;;;;;;;;;;5014280;28;20056;-74
2023/05/20 04:41:16;;;;;;;3.10;2.80;;;;;;;;;;5017644;28;20701;-74
2023/05/20 04:43:44;;;;;;;3.70;3.40;;;;;;;;;;4997956;28;20056;-74
2023/05/20 04:46:12;;;;;;;3.50;3.30;;;;;;;;;;4994612;28;20038;-74
2023/05/20 04:48:42;;;;;;;3.25;3.05;;;;;;;;;;5017587;28;20037;-74
2023/05/20 04:51:10;;;;;;;3.50;3.20;;;;;;;;;;5018019;28;20050;-74
2023/05/20 04:53:39;;;;;;;3.30;3.10;;;;;;;;;;5017877;28;20505;-74
2023/05/20 04:56:07;;;;;;;3.00;2.80;;;;;;;;;;5023067;28;20531;-74
2023/05/20 04:58:34;;;;;;;3.13;2.92;;;;;;;;;;5000743;28;20050;-74
2023/05/20 05:01:02;;;;;;;3.28;3.08;;;;;;;;;;5020944;28;20053;-74
2023/05/20 05:03:30;;;;;;;3.00;2.80;;;;;;;;;;5000867;28;20045;-74
2023/05/20 05:05:58;;;;;;;3.75;3.42;;;;;;;;;;5001123;28;20456;-75
2023/05/20 05:08:26;;;;;;;3.60;3.30;;;;;;;;;;4995588;28;20055;-74
2023/05/20 05:10:53;;;;;;;2.80;2.70;;;;;;;;;;4995286;28;20217;-74
2023/05/20 05:13:21;;;;;;;4.30;3.03;;;;;;;;;;5015224;28;20069;-74
2023/05/20 05:15:48;;;;;;;2.72;2.60;;;;;;;;;;4996153;28;20042;-74
2023/05/20 05:18:17;;;;;;;3.30;3.08;;;;;;;;;;5013289;28;20067;-74
2023/05/20 05:20:45;;;;;;;3.25;2.97;;;;;;;;;;5000769;28;20068;-74
2023/05/20 05:23:13;;;;;;;3.47;3.25;;;;;;;;;;4999124;28;20122;-74
2023/05/20 05:25:41;;;;;;;2.75;2.55;;;;;;;;;;4998302;28;20079;-74
2023/05/20 05:28:08;;;;;;;2.70;2.60;;;;;;;;;;5002749;28;20120;-74
2023/05/20 05:30:36;;;;;;;2.92;2.80;;;;;;;;;;5005351;28;20141;-74
2023/05/20 05:33:03;;;;;;;3.20;2.90;;;;;;;;;;5015982;28;20434;-74
2023/05/20 05:35:32;;;;;;;3.10;2.88;;;;;;;;;;5003236;28;20042;-74
2023/05/20 05:38:00;;;;;;;3.58;3.10;;;;;;;;;;5000296;28;20045;-74
2023/05/20 05:40:28;;;;;;;3.20;3.00;;;;;;;;;;4998960;28;20052;-74
2023/05/20 05:42:55;;;;;;;3.58;3.13;;;;;;;;;;5000907;28;20513;-74
2023/05/20 05:45:23;;;;;;;3.80;3.50;;;;;;;;;;5001652;28;20446;-74
2023/05/20 05:47:50;;;;;;;3.35;3.15;;;;;;;;;;4989041;28;20041;-74
2023/05/20 05:50:18;;;;;;;4.57;3.45;;;;;;;;;;5002512;28;20083;-73
2023/05/20 05:52:45;;;;;;;3.60;3.30;;;;;;;;;;4998176;28;20050;-74
2023/05/20 05:55:14;;;;;;;3.60;3.30;;;;;;;;;;5001760;28;20041;-73
2023/05/20 05:57:41;;;;;;;3.55;3.35;;;;;;;;;;5004289;28;20045;-74
2023/05/20 06:00:12;;;;;;;3.60;3.30;;;;;;;;;;4993737;28;20053;-74
2023/05/20 06:02:45;;;;;;;3.72;3.42;;;;;;;;;;5012030;28;20133;-74
2023/05/20 06:05:25;;;;;;;3.75;3.45;;;;;;;;;;4998565;28;20433;-74
2023/05/20 06:07:56;;;;;;;3.40;3.20;;;;;;;;;;5017397;28;20042;-74
2023/05/20 06:10:24;;;;;;;3.22;3.03;;;;;;;;;;5005294;28;20069;-74
2023/05/20 06:12:51;;;;;;;3.00;2.80;;;;;;;;;;5001114;28;20107;-74
2023/05/20 06:15:19;;;;;;;3.35;3.00;;;;;;;;;;5002704;28;20054;-74
2023/05/20 06:17:47;;;;;;;3.50;3.22;;;;;;;;;;5000320;28;20037;-74
2023/05/20 06:20:15;;;;;;;3.50;3.20;;;;;;;;;;4998713;28;20046;-74
2023/05/20 06:22:43;;;;;;;5.45;3.85;;;;;;;;;;4996498;28;20046;-74
2023/05/20 06:25:12;;;;;;;3.35;3.05;;;;;;;;;;5006192;28;20045;-74
2023/05/20 06:27:40;;;;;;;3.30;3.10;;;;;;;;;;4997067;28;20474;-74
2023/05/20 06:30:11;;;;;;;3.55;3.25;;;;;;;;;;4997960;28;20506;-74
2023/05/20 06:32:38;;;;;;;4.57;3.33;;;;;;;;;;5015062;28;20041;-75
2023/05/20 06:35:06;;;;;;;3.17;2.97;;;;;;;;;;5004092;28;20407;-74
2023/05/20 06:37:33;;;;;;;3.83;3.53;;;;;;;;;;5025259;28;20050;-76
2023/05/20 06:40:01;;;;;;;3.90;3.60;;;;;;;;;;5005354;28;20423;-77
2023/05/20 06:42:29;;;;;;;3.83;3.50;;;;;;;;;;5004878;28;20045;-74
2023/05/20 06:45:03;;;;;;;3.55;3.20;;;;;;;;;;4997637;28;20139;-74
2023/05/20 06:47:36;;;;;;;3.55;3.20;;;;;;;;;;5007592;28;20060;-75
2023/05/20 06:50:04;;;;;;;3.70;3.45;;;;;;;;;;5005233;28;20132;-74
2023/05/20 06:52:31;;;;;;;4.38;3.67;;;;;;;;;;5002131;28;20060;-75
2023/05/20 06:54:59;;;;;;;10.82;4.72;;;;;;;;;;5002604;28;20672;-75
2023/05/20 06:57:26;;;;;;;3.50;3.30;;;;;;;;;;4999340;28;20464;-74
2023/05/20 06:59:54;;;;;;;3.03;2.83;;;;;;;;;;5008802;28;20049;-74
2023/05/20 07:02:22;;;;;;;4.30;4.00;;;;;;;;;;5008209;28;20330;-74
2023/05/20 07:04:50;;;;;;;3.20;3.00;;;;;;;;;;5031560;28;20133;-75
2023/05/20 07:07:18;;;;;;;4.20;3.90;;;;;;;;;;5012539;28;20104;-74
2023/05/20 07:09:46;;;;;;;4.13;3.83;;;;;;;;;;5009131;28;20141;-74
2023/05/20 07:12:13;;;;;;;3.38;3.10;;;;;;;;;;5026578;28;20045;-75
2023/05/20 07:14:42;;;;;;;4.88;3.90;;;;;;;;;;5012211;28;20049;-75
2023/05/20 07:17:10;;;;;;;3.42;3.15;;;;;;;;;;5026562;28;20072;-75
2023/05/20 07:19:38;;;;;;;3.45;3.25;;;;;;;;;;5001273;28;20049;-74
2023/05/20 07:22:06;;;;;;;4.30;4.00;;;;;;;;;;5000736;28;20050;-74
2023/05/20 07:24:40;;;;;;;3.90;3.60;;;;;;;;;;5027139;28;20049;-74
2023/05/20 07:27:07;;;;;;;3.78;3.47;;;;;;;;;;5001356;28;20053;-75
2023/05/20 07:29:35;;;;;;;3.50;3.30;;;;;;;;;;5008266;28;20045;-75
2023/05/20 07:32:04;;;;;;;4.00;3.70;;;;;;;;;;5009005;28;20061;-74
2023/05/20 07:34:32;;;;;;;3.97;3.67;;;;;;;;;;5007531;28;20211;-75
2023/05/20 07:37:01;;;;;;;3.58;3.38;;;;;;;;;;5008343;28;20312;-74
2023/05/20 07:39:28;;;;;;;4.22;3.85;;;;;;;;;;5006503;28;20056;-74
2023/05/20 07:41:56;;;;;;;3.67;3.38;;;;;;;;;;5024267;28;20041;-74
2023/05/20 07:44:23;;;;;;;3.58;3.28;;;;;;;;;;5025075;28;20499;-75
2023/05/20 07:46:52;;;;;;;5.18;3.58;;;;;;;;;;5002549;28;20100;-74
2023/05/20 07:49:19;;;;;;;3.70;3.40;;;;;;;;;;5008354;28;20086;-74
2023/05/20 07:51:47;;;;;;;3.70;3.50;;;;;;;;;;5007629;28;20042;-74
2023/05/20 07:54:15;;;;;;;3.50;3.22;;;;;;;;;;5012096;28;20044;-74
2023/05/20 07:56:46;;;;;;;3.50;3.27;;;;;;;;;;5005534;28;20046;-74
2023/05/20 07:59:13;;;;;;;4.05;3.70;;;;;;;;;;5003397;28;20049;-76
2023/05/20 08:01:46;;;;;;;3.67;3.38;;;;;;;;;;5008199;28;20045;-73
2023/05/20 08:04:16;;;;;;;3.47;3.17;;;;;;;;;;5002867;28;20573;-73
2023/05/20 08:06:45;;;;;;;3.80;3.50;;;;;;;;;;5004516;28;20473;-73
2023/05/20 08:09:20;;;;;;;4.78;3.72;;;;;;;;;;5006248;28;20045;-74
2023/05/20 08:11:51;;;;;;;3.53;3.30;;;;;;;;;;5003592;28;20500;-73
2023/05/20 08:14:18;;;;;;;3.58;3.28;;;;;;;;;;5007697;28;20045;-73
2023/05/20 08:16:49;;;;;;;4.53;4.13;;;;;;;;;;5000684;28;20602;-75
2023/05/20 08:19:33;;;;;;;3.90;3.60;;;;;;;;;;5046650;23;20141;-85
2023/05/20 08:22:23;;;;;;;4.25;3.90;;;;;;;;;;5022227;28;20459;-85
2023/05/20 08:25:20;;;;;;;3.75;3.40;;;;;;;;;;5015933;28;20041;-86
2023/05/20 08:28:20;;;;;;;32.63;28.13;;;;;;;;;;5026806;28;20133;-84
2023/05/20 08:31:05;;;;;;;3.97;3.67;;;;;;;;;;5017473;28;20037;-85
2023/05/20 08:37:49;;;;;;;3.90;3.50;;;;;;;;;;5010133;28;20562;-86
2023/05/20 08:40:27;;;;;;;4.25;3.85;;;;;;;;;;4996024;28;20072;-83
2023/05/20 08:43:04;;;;;;;5.10;3.25;;;;;;;;;;5000149;28;20129;-85
2023/05/20 08:46:06;;;;;;;;;;;;;;;;;;;;;
2023/05/20 08:48:59;;;;;;;4.27;3.80;;;;;;;;;;5023171;28;19940;-87
2023/05/20 08:52:31;;;;;;;3.90;3.60;;;;;;;;;;5010300;28;20053;-83
2023/05/20 08:56:01;;;;;;;4.43;4.03;;;;;;;;;;4936945;28;20091;-85
2023/05/20 08:59:00;;;;;;;;;;;;;;;;;;;;;
2023/05/20 09:01:49;;;;;;;5.32;3.88;;;;;;;;;;5003606;28;20107;-85
2023/05/20 09:04:52;;;;;;;3.22;3.03;;;;;;;;;;5012667;28;20052;-90
2023/05/20 09:07:50;;;;;;;4.20;3.90;;;;;;;;;;5026353;28;20068;-86
2023/05/20 09:10:43;;;;;;;4.57;3.80;;;;;;;;;;4984955;28;20046;-85
2023/05/20 09:13:21;;;;;;;3.60;3.40;;;;;;;;;;4996164;28;20043;-84
2023/05/20 09:16:25;;;;;;;3.90;3.45;;;;;;;;;;5026048;28;20046;-85
2023/05/20 09:22:29;;;;;;;3.67;3.38;;;;;;;;;;4965794;28;20120;-86
2023/05/20 09:25:11;;;;;;;3.63;3.33;;;;;;;;;;5015988;28;20070;-85
2023/05/20 09:27:59;;;;;;;4.45;3.40;;;;;;;;;;5001913;28;20046;-86
2023/05/20 09:30:41;;;;;;;3.70;3.50;;;;;;;;;;4986495;28;20046;-85
2023/05/20 09:33:30;;;;;;;3.50;3.30;;;;;;;;;;5027608;28;20050;-84
2023/05/20 09:36:23;;;;;;;3.90;3.60;;;;;;;;;;5008192;28;20542;-88
2023/05/20 09:39:32;;;;;;;3.42;3.20;;;;;;;;;;5023336;28;20042;-85
2023/05/20 09:43:02;;;;;;;3.28;3.08;;;;;;;;;;5020527;28;20218;-87
2023/05/20 09:45:39;;;;;;;3.15;2.95;;;;;;;;;;4996157;28;20046;-88
2023/05/20 09:48:56;;;;;;;3.30;3.10;;;;;;;;;;5020561;28;20041;-85
2023/05/20 09:51:52;;;;;;;3.42;3.10;;;;;;;;;;4971272;28;20414;-85
2023/05/20 09:55:41;;;;;;;4.10;3.80;;;;;;;;;;5009339;28;20561;-85
2023/05/20 09:59:30;;;;;;;3.78;3.47;;;;;;;;;;4915050;29;20087;-88
2023/05/20 10:03:27;;;;;;;6.85;6.22;;;;;;;;;;4935523;29;20101;-85
2023/05/20 10:06:47;;;;;;;3.97;3.67;;;;;;;;;;4891883;29;20173;-86
2023/05/20 10:14:00;;;;;;;3.47;3.17;;;;;;;;;;4942570;29;20606;-85
2023/05/20 10:17:24;;;;;;;4.10;3.70;;;;;;;;;;4944837;29;20146;-88
2023/05/20 10:20:28;;;;;;;3.65;3.35;;;;;;;;;;4933240;29;20055;-86
2023/05/20 10:27:37;;;;;;;;;;;;;;;;;;;;;
2023/05/20 10:31:24;;;;;;;3.80;3.50;;;;;;;;;;4982627;28;20054;-76
2023/05/20 10:33:52;;;;;;;3.90;3.65;;;;;;;;;;4980491;28;20039;-76
2023/05/20 10:36:25;;;;;;;3.60;3.40;;;;;;;;;;4962939;28;20048;-76
2023/05/20 10:38:57;;;;;;;4.07;3.78;;;;;;;;;;4950526;28;20051;-77
2023/05/20 10:41:25;;;;;;;;;;;;;;;;;;4970814;28;20050;-76
2023/05/20 10:44:03;;;;;;;4.53;3.80;;;;;;;;;;4963714;28;19953;-76
2023/05/20 10:46:32;;;;;;;3.40;3.10;;;;;;;;;;4944872;28;20093;-76
2023/05/20 10:49:19;;;;;;;3.60;3.30;;;;;;;;;;4949174;28;20121;-77
2023/05/20 10:51:53;;;;;;;3.42;3.15;;;;;;;;;;4963454;28;20058;-77
2023/05/20 10:54:22;;;;;;;3.03;2.83;;;;;;;;;;4965841;28;20066;-76
2023/05/20 10:56:52;;;;;;;4.43;3.97;;;;;;;;;;4966852;28;20046;-77
2023/05/20 10:59:21;;;;;;;3.85;3.58;;;;;;;;;;4959841;28;20058;-77
2023/05/20 11:01:50;;;;;;;3.67;3.38;;;;;;;;;;4950925;28;20395;-78
2023/05/20 11:04:18;;;;;;;9.32;6.82;;;;;;;;;;4966325;28;20137;-77
2023/05/20 11:06:52;;;;;;;4.10;3.75;;;;;;;;;;4968450;28;20306;-76
2023/05/20 11:09:21;;;;;;;3.38;3.17;;;;;;;;;;4973473;28;20378;-78
2023/05/20 11:11:49;;;;;;;3.15;2.85;;;;;;;;;;4971804;28;20536;-78
2023/05/20 11:14:18;;;;;;;2.97;2.78;;;;;;;;;;4970101;28;20050;-77
2023/05/20 11:16:47;;;;;;;3.45;3.15;;;;;;;;;;4975345;28;20055;-77
2023/05/20 11:19:15;;;;;;;3.20;3.00;;;;;;;;;;4966312;28;20055;-77
2023/05/20 11:21:43;;;;;;;3.22;3.00;;;;;;;;;;4957101;28;20046;-76
2023/05/20 11:24:11;;;;;;;3.35;3.15;;;;;;;;;;4969167;28;20055;-79
2023/05/20 11:26:39;;;;;;;3.20;3.00;;;;;;;;;;4962243;28;20070;-76
2023/05/20 11:29:07;;;;;;;3.30;3.10;;;;;;;;;;4966647;28;20071;-78
2023/05/20 11:31:37;;;;;;;8.93;4.90;;;;;;;;;;4969692;28;20051;-82
2023/05/20 11:34:05;;;;;;;4.20;3.83;;;;;;;;;;4963940;28;20074;-81
2023/05/20 11:36:33;;;;;;;4.95;4.55;;;;;;;;;;4971191;28;20054;-78
2023/05/20 11:39:02;;;;;;;3.63;3.40;;;;;;;;;;4969773;28;20082;-77
2023/05/20 11:41:30;;;;;;;3.55;3.20;;;;;;;;;;4981107;28;20099;-78
2023/05/20 11:44:01;;;;;;;3.78;3.58;;;;;;;;;;4975263;28;20308;-77
2023/05/20 11:46:28;;;;;;;4.35;4.03;;;;;;;;;;4969057;28;20051;-78
2023/05/20 11:48:56;;;;;;;3.95;3.70;;;;;;;;;;4986219;28;20055;-78
2023/05/20 11:51:27;;;;;;;4.68;4.20;;;;;;;;;;4981614;28;20054;-79
2023/05/20 11:54:02;;;;;;;3.80;3.50;;;;;;;;;;4975484;28;20046;-77
2023/05/20 11:56:30;;;;;;;3.70;3.47;;;;;;;;;;4978146;28;20456;-77
2023/05/20 11:58:59;;;;;;;3.42;3.22;;;;;;;;;;4973918;28;20560;-76
2023/05/20 12:01:29;;;;;;;4.15;3.80;;;;;;;;;;4979095;28;20055;-77
2023/05/20 12:03:56;;;;;;;3.97;3.67;;;;;;;;;;4968626;28;20106;-76
2023/05/20 12:06:25;;;;;;;4.05;3.58;;;;;;;;;;4978414;28;20600;-78
2023/05/20 12:08:52;;;;;;;3.47;3.28;;;;;;;;;;4957348;28;20127;-77
2023/05/20 12:11:21;;;;;;;3.70;3.40;;;;;;;;;;4950439;28;20386;-75
2023/05/20 12:13:49;;;;;;;4.40;4.03;;;;;;;;;;4949397;28;20626;-78
2023/05/20 12:16:16;;;;;;;4.32;3.65;;;;;;;;;;4969351;28;20097;-78
2023/05/20 12:18:44;;;;;;;4.03;3.70;;;;;;;;;;4959883;28;20070;-77
2023/05/20 12:21:12;;;;;;;3.45;3.25;;;;;;;;;;4976682;28;20074;-78
2023/05/20 12:23:40;;;;;;;3.65;3.42;;;;;;;;;;4986747;28;20050;-78
2023/05/20 12:26:07;;;;;;;3.60;3.40;;;;;;;;;;4981338;28;20114;-77
2023/05/20 12:28:35;;;;;;;3.70;3.40;;;;;;;;;;4979727;28;20097;-77
2023/05/20 12:31:03;;;;;;;4.00;3.70;;;;;;;;;;4978704;28;20125;-76
2023/05/20 12:33:31;;;;;;;3.35;3.15;;;;;;;;;;4969096;28;20066;-77
2023/05/20 12:35:59;;;;;;;3.47;3.10;;;;;;;;;;4972938;28;20046;-77
2023/05/20 12:38:28;;;;;;;3.17;3.00;;;;;;;;;;4978161;28;20165;-78
2023/05/20 12:40:56;;;;;;;4.90;4.53;;;;;;;;;;4966584;28;20358;-77
2023/05/20 12:43:24;;;;;;;4.50;4.10;;;;;;;;;;4978080;28;20457;-79
2023/05/20 12:45:52;;;;;;;3.72;3.53;;;;;;;;;;4966921;28;20070;-77
2023/05/20 12:48:19;;;;;;;4.38;3.20;;;;;;;;;;4975763;28;20043;-77
2023/05/20 12:50:47;;;;;;;3.40;3.20;;;;;;;;;;4966535;28;20038;-77
2023/05/20 12:53:16;;;;;;;3.13;2.92;;;;;;;;;;4965289;28;20054;-77
2023/05/20 12:55:44;;;;;;;4.10;3.80;;;;;;;;;;4966651;28;20050;-76
2023/05/20 12:58:11;;;;;;;2.88;2.67;;;;;;;;;;4959930;28;20933;-75
2023/05/20 13:00:39;;;;;;;3.75;3.50;;;;;;;;;;4967216;28;20073;-77
2023/05/20 13:03:06;;;;;;;3.60;3.30;;;;;;;;;;4971287;28;20086;-76
2023/05/20 13:05:37;;;;;;;4.07;3.38;;;;;;;;;;4978367;28;20159;-79
2023/05/20 13:08:05;;;;;;;3.70;3.40;;;;;;;;;;4978549;28;20073;-77
2023/05/20 13:10:33;;;;;;;3.97;3.67;;;;;;;;;;4963607;28;20398;-77
2023/05/20 13:13:00;;;;;;;3.90;3.60;;;;;;;;;;4945684;28;20431;-76
2023/05/20 13:15:28;;;;;;;5.93;3.70;;;;;;;;;;4960447;28;20043;-76
2023/05/20 13:17:56;;;;;;;3.25;3.05;;;;;;;;;;4967137;28;20138;-76
2023/05/20 13:20:24;;;;;;;3.50;3.20;;;;;;;;;;4947476;28;20043;-76
2023/05/20 13:22:52;;;;;;;5.30;3.78;;;;;;;;;;4962831;28;20058;-78
2023/05/20 13:25:19;;;;;;;3.63;3.40;;;;;;;;;;4981671;28;20064;-77
2023/05/20 13:27:47;;;;;;;3.47;3.28;;;;;;;;;;4966219;28;20051;-77
2023/05/20 13:30:15;;;;;;;3.10;2.90;;;;;;;;;;4965427;28;20051;-77
2023/05/20 13:32:42;;;;;;;3.13;2.92;;;;;;;;;;4975188;28;20062;-77
2023/05/20 13:35:11;;;;;;;3.35;3.10;;;;;;;;;;4965950;28;20458;-76
2023/05/20 13:37:39;;;;;;;3.40;3.20;;;;;;;;;;4964006;28;20133;-78
2023/05/20 13:40:07;;;;;;;3.78;3.58;;;;;;;;;;4965800;28;20413;-77
2023/05/20 13:42:35;;;;;;;5.75;3.50;;;;;;;;;;4967820;28;20158;-76
2023/05/20 13:45:02;;;;;;;4.35;3.67;;;;;;;;;;4968739;28;20053;-76
2023/05/20 13:47:30;;;;;;;3.72;3.42;;;;;;;;;;4984813;28;20062;-77
2023/05/20 13:49:58;;;;;;;3.50;3.20;;;;;;;;;;4988076;28;20048;-76
2023/05/20 13:52:29;;;;;;;3.42;3.10;;;;;;;;;;4969596;28;20054;-77
2023/05/20 13:54:56;;;;;;;4.05;3.70;;;;;;;;;;4981709;28;20468;-77
2023/05/20 13:57:24;;;;;;;4.47;3.97;;;;;;;;;;4973199;28;20046;-77
2023/05/20 13:59:51;;;;;;;3.72;3.42;;;;;;;;;;4971922;28;20066;-76
2023/05/20 14:02:19;;;;;;;3.50;3.30;;;;;;;;;;4978279;28;20489;-77
2023/05/20 14:04:48;;;;;;;3.20;3.00;;;;;;;;;;4968849;28;20051;-77
2023/05/20 14:07:15;;;;;;;3.90;3.50;;;;;;;;;;4971211;28;20228;-78
2023/05/20 14:09:43;;;;;;;4.20;3.88;;;;;;;;;;4953144;28;20050;-75
2023/05/20 14:12:11;;;;;;;3.30;3.10;;;;;;;;;;4970564;28;20084;-78
2023/05/20 14:14:39;;;;;;;3.85;3.58;;;;;;;;;;4970902;28;20047;-75
2023/05/20 14:17:06;;;;;;;3.58;3.28;;;;;;;;;;4969451;28;20792;-77
2023/05/20 14:19:34;;;;;;;3.95;3.40;;;;;;;;;;4988134;23;20481;-76
2023/05/20 14:22:02;;;;;;;3.75;3.53;;;;;;;;;;5029890;28;20048;-74
2023/05/20 14:24:29;;;;;;;3.92;3.63;;;;;;;;;;5027555;28;20439;-73
2023/05/20 14:26:57;;;;;;;3.13;2.95;;;;;;;;;;5034543;28;20046;-74
2023/05/20 14:29:25;;;;;;;3.20;3.00;;;;;;;;;;5030511;28;20585;-75
2023/05/20 14:31:52;;;;;;;3.60;3.40;;;;;;;;;;5029705;28;20483;-74
2023/05/20 14:34:20;;;;;;;3.55;3.30;;;;;;;;;;5030474;28;20049;-75
2023/05/20 14:36:49;;;;;;;3.67;3.38;;;;;;;;;;5011055;28;20431;-75
2023/05/20 14:39:17;;;;;;;3.40;3.20;;;;;;;;;;5026111;28;20446;-75
2023/05/20 14:41:44;;;;;;;3.20;3.00;;;;;;;;;;5029846;28;20510;-75
2023/05/20 14:44:12;;;;;;;3.60;3.40;;;;;;;;;;5018057;28;20133;-75
2023/05/20 14:46:39;;;;;;;3.35;3.15;;;;;;;;;;5011523;28;20049;-75
2023/05/20 14:49:07;;;;;;;8.20;6.70;;;;;;;;;;5008600;28;20050;-75
2023/05/20 14:51:34;;;;;;;4.13;3.75;;;;;;;;;;5009329;28;20049;-74
2023/05/20 14:54:02;;;;;;;4.07;3.78;;;;;;;;;;5022674;28;20057;-75
2023/05/20 14:56:30;;;;;;;4.63;4.22;;;;;;;;;;5016349;28;20408;-75
2023/05/20 14:58:57;;;;;;;3.67;3.47;;;;;;;;;;5026814;28;20410;-76
2023/05/20 15:01:25;;;;;;;4.03;3.72;;;;;;;;;;5015047;28;20452;-74
2023/05/20 15:03:52;;;;;;;3.45;3.22;;;;;;;;;;5015965;28;20045;-74
2023/05/20 15:06:20;;;;;;;3.55;3.25;;;;;;;;;;5014869;28;20042;-75
2023/05/20 15:08:47;;;;;;;3.58;3.38;;;;;;;;;;5011702;28;20133;-75
2023/05/20 15:11:15;;;;;;;4.43;4.13;;;;;;;;;;5005773;28;20100;-75
2023/05/20 15:13:45;;;;;;;4.13;3.83;;;;;;;;;;5007030;28;20112;-74
2023/05/20 15:16:12;;;;;;;4.50;4.20;;;;;;;;;;5011982;28;20047;-75
2023/05/20 15:18:40;;;;;;;4.10;3.80;;;;;;;;;;5023513;28;20481;-74
2023/05/20 15:21:08;;;;;;;3.33;3.13;;;;;;;;;;4995659;28;20511;-74
2023/05/20 15:23:35;;;;;;;3.80;3.50;;;;;;;;;;5016969;28;20050;-74
2023/05/20 15:26:03;;;;;;;4.25;3.95;;;;;;;;;;5027037;28;20049;-74
2023/05/20 15:28:30;;;;;;;11.45;7.28;;;;;;;;;;5027581;28;20099;-75
2023/05/20 15:30:58;;;;;;;4.78;3.78;;;;;;;;;;5014758;28;20496;-74